Decoded Metar for KAAO (WICHITA/JABARA in KS, USA) (IATA:AAO) | Meteo·Mobile Aviation Weather
aviador You're here:

KAAO Decoded Metar

WICHITA/JABARA in KS, USA
Report Time2018-10-18 09:54:00
UTC Time2018-10-18 10:12:41
Flight Rules vfr VFR
WindCalm
Visibility9999 m
Phenomena:N/A
Clouds:N/A
Expected CloudBase > 400 ft AGL from Temp-Dew spread
CeilingNone
Temp07°C (ISA -5)
Dew Point06°C (93% RH)
AAT6.1°C
QNH1031 hPa
Density Alt328 ft
Elevation1,424 ft
Report Wrong Elevation
Raw Report
KAAO 180954Z AUTO 00000KT 10SM CLR 07/06 A3045 RMK AO2 SLP313
T00670056=

Extra information for KAAO:More info

Metar Taf Metar & Taf Last 4 Metars F.Rules Stats Wind Profile Meteogram Temp Stats Airport Information Weather charts Add Link Nearby VenuesMetar ALERT Operation Metar Decoded Social comments

AIRNAV info for KAAO